To NAV CANADA Home Page Login to a new session Search on AWWS site Feedback and Comments Disclaimer Vers la page française équivalente Tips FAQ What's new on the site To the Forecasts and Observations / NOTAM section To "File a Flight Plan" website Publications and other links Update of the User's profile FIC Telephone Numbers My Weather Data Folder Route Weather Data Regional Weather Data Local Weather Data To the Forecasts and Observations / NOTAM section
Request Generated 04/25/2015 at 01:51:08 UTC . Weather information available at that time is displayed.

METAR/TAF

TORONTO/BUTTONVILLE MUNICIPAL/ON    

METAR CYKZ 250100Z 33010KT 15SM FEW030 FEW200 01/M06 A3002 RMK CU1CI1 SLP173=
METAR CYKZ 250000Z 34015KT 15SM FEW030 FEW210 02/M06 A3000 RMK CU1CI0 CU TR SLP167=
METAR CYKZ 242300Z 34015KT 15SM FEW035 03/M05 A2999 RMK CU1 SLP163=

TAF CYKZ 242338Z 2500/2512 33015KT P6SM SCT040
BECMG 2501/2503 33005KT
BECMG 2508/2510 VRB03KT
RMK NXT FCST BY 250600Z=
Your time UTC time
Weather data provided by Environment Canada and NAV CANADA